createdAt,value
2022-12-23T00:01:58.769Z,98191.51
2022-12-23T00:04:29.311Z,98189.49
2022-12-23T00:06:58.648Z,98196.65
2022-12-23T00:09:27.889Z,98196.45
2022-12-23T00:12:16.081Z,98203.19
2022-12-23T00:15:03.481Z,98205.87
2022-12-23T00:17:37.529Z,98204.21
2022-12-23T00:20:06.540Z,98205.06
2022-12-23T00:22:53.263Z,98204.08
2022-12-23T00:25:43.921Z,98195.98
2022-12-23T00:28:15.769Z,98196.08
2022-12-23T00:30:54.135Z,98193.04
2022-12-23T00:33:25.632Z,98183.81
2022-12-23T00:35:54.671Z,98183.23
2022-12-23T00:44:21.485Z,98172.05
2022-12-23T00:46:50.284Z,98171.75
2022-12-23T00:49:38.284Z,98170.34
2022-12-23T00:52:07.477Z,98159.45
2022-12-23T00:54:36.590Z,98154.48
2022-12-23T00:57:05.190Z,98155.92
2022-12-23T00:59:35.275Z,98156.15
2022-12-23T01:02:25.020Z,98156.08
2022-12-23T01:05:11.846Z,98158.69
2022-12-23T01:07:40.107Z,98155.55
2022-12-23T01:10:09.164Z,98157.33
2022-12-23T01:12:37.473Z,98155.40
2022-12-23T01:15:06.194Z,98158.58
2022-12-23T01:17:34.137Z,98160.25
2022-12-23T01:20:02.350Z,98155.86
2022-12-23T01:22:30.494Z,98152.27
2022-12-23T01:24:58.614Z,98151.77
2022-12-23T01:27:26.767Z,98151.71
2022-12-23T01:29:54.887Z,98150.95
2022-12-23T01:32:23.004Z,98146.43
2022-12-23T01:34:52.594Z,98139.59
2022-12-23T01:37:21.060Z,98136.63
2022-12-23T01:39:49.198Z,98135.25
2022-12-23T01:42:39.024Z,98131.14
2022-12-23T01:45:29.635Z,98121.67
2022-12-23T01:48:10.208Z,98118.05
2022-12-23T01:50:44.819Z,98113.41
2022-12-23T01:53:22.487Z,98117.79
2022-12-23T01:55:56.704Z,98119.78
2022-12-23T01:58:28.678Z,98123.53
2022-12-23T02:01:16.710Z,98123.17
2022-12-23T02:03:47.494Z,98121.47
2022-12-23T02:06:43.072Z,98115.00
2022-12-23T02:09:19.789Z,98107.89
2022-12-23T02:12:06.471Z,98103.27
2022-12-23T02:15:20.961Z,98103.59
2022-12-23T02:18:04.137Z,98104.55
2022-12-23T02:21:11.340Z,98103.37
2022-12-23T02:23:47.923Z,98104.55
2022-12-23T02:26:35.012Z,98096.77
2022-12-23T02:29:46.025Z,98094.23
2022-12-23T02:32:47.816Z,98093.55
2022-12-23T02:35:38.193Z,98090.59
2022-12-23T02:38:24.071Z,98083.48
2022-12-23T02:41:12.449Z,98076.86
2022-12-23T02:44:02.351Z,98084.73
2022-12-23T02:46:49.571Z,98083.69
2022-12-23T02:49:35.591Z,98084.14
2022-12-23T02:52:13.302Z,98084.67
2022-12-23T02:54:49.433Z,98084.64
2022-12-23T02:57:21.481Z,98081.37
2022-12-23T02:59:54.227Z,98082.83
2022-12-23T03:02:22.684Z,98084.64
2022-12-23T03:04:51.997Z,98085.73
2022-12-23T03:07:43.256Z,98086.95
2022-12-23T03:10:20.616Z,98084.21
2022-12-23T03:13:17.200Z,98086.22
2022-12-23T03:15:50.040Z,98088.66
2022-12-23T03:18:32.980Z,98085.65
2022-12-23T03:21:36.564Z,98081.11
2022-12-23T03:24:17.796Z,98079.08
2022-12-23T03:26:54.143Z,98080.89
2022-12-23T03:29:44.388Z,98080.23
2022-12-23T03:32:16.230Z,98074.18
2022-12-23T03:34:48.389Z,98072.23
2022-12-23T03:37:20.232Z,98073.29
2022-12-23T03:40:25.073Z,98076.48
2022-12-23T03:43:01.339Z,98071.67
2022-12-23T03:45:42.292Z,98070.98
2022-12-23T03:48:20.450Z,98073.73
2022-12-23T03:50:54.315Z,98072.73
2022-12-23T03:53:46.853Z,98071.11
2022-12-23T03:56:23.544Z,98073.80
2022-12-23T03:58:58.644Z,98077.46
2022-12-23T04:01:46.262Z,98075.19
2022-12-23T04:04:28.397Z,98073.91
2022-12-23T04:07:14.308Z,98078.84
2022-12-23T04:09:43.806Z,98078.15
2022-12-23T04:12:14.693Z,98074.70
2022-12-23T04:14:48.977Z,98075.52
2022-12-23T04:17:18.209Z,98076.83
2022-12-23T04:19:48.285Z,98075.70
2022-12-23T04:22:16.853Z,98073.91
2022-12-23T04:24:47.070Z,98076.98
2022-12-23T04:27:16.378Z,98074.52
2022-12-23T04:29:44.952Z,98071.10
2022-12-23T04:32:13.818Z,98067.30
2022-12-23T04:34:41.841Z,98062.52
2022-12-23T04:37:11.992Z,98058.86
2022-12-23T04:39:41.705Z,98055.98
2022-12-23T04:42:13.606Z,98058.66
2022-12-23T04:44:41.798Z,98060.21
2022-12-23T04:47:10.688Z,98066.30
2022-12-23T04:49:38.932Z,98067.29
2022-12-23T04:52:07.096Z,98069.27
2022-12-23T04:54:43.856Z,98070.55
2022-12-23T04:57:15.385Z,98074.48
2022-12-23T04:59:43.604Z,98077.00
2022-12-23T05:02:12.744Z,98078.95
2022-12-23T05:04:47.860Z,98076.34
2022-12-23T05:07:16.701Z,98076.18
2022-12-23T05:09:44.769Z,98072.82
2022-12-23T05:12:12.952Z,98073.51
2022-12-23T05:14:43.722Z,98074.86
2022-12-23T05:17:11.789Z,98074.33
2022-12-23T05:19:40.054Z,98073.67
2022-12-23T05:22:08.426Z,98075.25
2022-12-23T05:24:36.603Z,98076.71
2022-12-23T05:27:04.905Z,98073.55
2022-12-23T05:29:32.969Z,98070.48
2022-12-23T05:32:01.148Z,98071.31
2022-12-23T05:34:29.283Z,98080.25
2022-12-23T05:36:57.543Z,98083.64
2022-12-23T05:39:25.862Z,98085.69
2022-12-23T05:41:54.045Z,98088.61
2022-12-23T05:44:22.085Z,98087.66
2022-12-23T05:46:50.175Z,98088.92
2022-12-23T05:49:18.281Z,98082.27
2022-12-23T05:51:46.497Z,98079.77
2022-12-23T05:54:15.904Z,98086.35
2022-12-23T05:56:44.168Z,98090.04
2022-12-23T05:59:12.691Z,98090.60
2022-12-23T06:01:43.055Z,98092.83
2022-12-23T06:04:14.308Z,98094.88
2022-12-23T06:06:42.481Z,98099.75
2022-12-23T06:09:10.736Z,98097.77
2022-12-23T06:11:38.919Z,98095.77
2022-12-23T06:14:10.298Z,98091.90
2022-12-23T06:16:42.839Z,98095.14
2022-12-23T06:19:11.136Z,98097.98
2022-12-23T06:21:39.698Z,98099.98
2022-12-23T06:24:09.017Z,98099.06
2022-12-23T06:26:38.267Z,98097.58
2022-12-23T06:29:07.610Z,98100.61
2022-12-23T06:31:35.775Z,98105.04
2022-12-23T06:34:03.871Z,98107.30
2022-12-23T06:36:32.635Z,98105.91
2022-12-23T06:39:00.799Z,98099.95
2022-12-23T06:41:28.961Z,98103.39
2022-12-23T06:44:02.145Z,98103.88
2022-12-23T06:46:30.596Z,98100.64
2022-12-23T06:48:58.823Z,98100.93
2022-12-23T06:51:27.179Z,98100.17
2022-12-23T06:53:55.951Z,98101.15
2022-12-23T06:56:25.626Z,98097.38
2022-12-23T06:58:56.855Z,98100.12
2022-12-23T07:01:27.116Z,98101.69
2022-12-23T07:03:56.574Z,98097.85
2022-12-23T07:06:24.671Z,98101.66
2022-12-23T07:08:52.825Z,98102.50
2022-12-23T07:11:20.987Z,98098.77
2022-12-23T07:13:49.156Z,98096.17
2022-12-23T07:16:17.815Z,98098.38
2022-12-23T07:18:46.061Z,98099.17
2022-12-23T07:21:24.586Z,98101.00
2022-12-23T07:23:58.275Z,98103.98
2022-12-23T07:26:26.465Z,98101.71
2022-12-23T07:28:54.669Z,98105.09
2022-12-23T07:31:23.037Z,98103.27
2022-12-23T07:33:51.099Z,98103.95
2022-12-23T07:36:19.338Z,98101.87
2022-12-23T07:38:51.848Z,98101.65
2022-12-23T07:41:21.282Z,98096.13
2022-12-23T07:43:50.166Z,98093.40
2022-12-23T07:46:19.625Z,98093.30
2022-12-23T07:48:47.666Z,98095.77
2022-12-23T07:51:15.780Z,98098.58
2022-12-23T07:53:44.047Z,98097.08
2022-12-23T07:56:12.047Z,98100.55
2022-12-23T07:58:41.307Z,98102.52
2022-12-23T08:01:09.552Z,98101.48
2022-12-23T08:03:37.928Z,98097.81
2022-12-23T08:06:12.414Z,98093.98
2022-12-23T08:08:42.156Z,98095.80
2022-12-23T08:11:12.407Z,98093.89
2022-12-23T08:13:43.115Z,98091.57
2022-12-23T08:16:12.920Z,98093.75
2022-12-23T08:18:42.156Z,98099.29
2022-12-23T08:21:16.825Z,98095.95
2022-12-23T08:23:48.502Z,98090.83
2022-12-23T08:26:22.521Z,98091.73
2022-12-23T08:28:55.387Z,98092.78
2022-12-23T08:31:34.416Z,98099.06
2022-12-23T08:34:04.369Z,98105.33
2022-12-23T08:36:34.903Z,98100.09
2022-12-23T08:39:09.466Z,98093.27
2022-12-23T08:41:41.923Z,98097.55
2022-12-23T08:44:10.788Z,98094.95
2022-12-23T08:46:39.765Z,98092.56
2022-12-23T08:49:08.914Z,98090.05
2022-12-23T08:51:38.919Z,98083.83
2022-12-23T08:54:07.567Z,98079.95
2022-12-23T08:56:39.239Z,98075.25
2022-12-23T08:59:18.714Z,98068.03
2022-12-23T09:01:48.586Z,98067.18
2022-12-23T09:04:17.279Z,98068.99
2022-12-23T09:06:46.740Z,98064.17
2022-12-23T09:09:15.886Z,98058.34
2022-12-23T09:11:45.622Z,98057.56
2022-12-23T09:14:14.030Z,98061.10
2022-12-23T09:16:42.470Z,98056.45
2022-12-23T09:19:10.595Z,98054.72
2022-12-23T09:21:38.855Z,98052.86
2022-12-23T09:24:06.955Z,98048.41
2022-12-23T09:26:36.507Z,98043.20
2022-12-23T09:29:05.948Z,98044.39
2022-12-23T09:31:57.778Z,98041.34
2022-12-23T09:34:26.805Z,98038.19
2022-12-23T09:36:55.665Z,98031.69
2022-12-23T09:39:25.950Z,98028.50
2022-12-23T09:42:06.190Z,98035.63
2022-12-23T09:45:13.326Z,98039.69
2022-12-23T09:47:43.113Z,98034.05
2022-12-23T09:50:29.722Z,98032.47
2022-12-23T09:53:12.834Z,98034.75
2022-12-23T09:56:09.145Z,98038.04
2022-12-23T09:59:03.619Z,98034.27
2022-12-23T10:01:48.940Z,98027.29
2022-12-23T10:04:45.687Z,98030.48
2022-12-23T10:07:34.262Z,98031.13
2022-12-23T10:10:13.614Z,98028.38
2022-12-23T10:12:49.472Z,98030.75
2022-12-23T10:15:42.902Z,98024.82
2022-12-23T10:18:21.865Z,98022.21
2022-12-23T10:21:31.700Z,98015.63
2022-12-23T10:24:06.150Z,98009.48
2022-12-23T10:26:53.295Z,98003.86
2022-12-23T10:29:27.831Z,97996.91
2022-12-23T10:32:33.383Z,97991.64
2022-12-23T10:35:11.468Z,97986.48
2022-12-23T10:38:09.667Z,97980.09
2022-12-23T10:41:14.395Z,97979.58
2022-12-23T10:43:52.687Z,97975.81
2022-12-23T10:46:38.937Z,97971.38
2022-12-23T10:49:24.142Z,97964.03
2022-12-23T10:52:00.469Z,97960.73
2022-12-23T10:54:34.223Z,97957.22
2022-12-23T10:57:05.843Z,97954.33
2022-12-23T10:59:36.150Z,97949.46
2022-12-23T11:02:14.607Z,97947.56
2022-12-23T11:04:48.946Z,97946.31
2022-12-23T11:07:43.591Z,97945.64
2022-12-23T11:10:26.279Z,97951.09
2022-12-23T11:12:54.864Z,97950.09
2022-12-23T11:15:33.428Z,97951.08
2022-12-23T11:18:06.308Z,97950.46
2022-12-23T11:20:36.808Z,97947.91
2022-12-23T11:23:06.964Z,97944.61
2022-12-23T11:25:37.331Z,97947.23
2022-12-23T11:28:16.901Z,97945.30
2022-12-23T11:30:59.189Z,97940.98
2022-12-23T11:33:31.569Z,97936.75
2022-12-23T11:36:14.948Z,97936.66
2022-12-23T11:39:18.368Z,97937.26
2022-12-23T11:41:49.952Z,97936.70
2022-12-23T11:44:21.030Z,97942.16
2022-12-23T11:46:50.219Z,97944.39
2022-12-23T11:49:23.149Z,97942.58
2022-12-23T11:52:02.485Z,97946.58
2022-12-23T11:54:55.267Z,97944.39
2022-12-23T11:57:40.723Z,97942.77
2022-12-23T12:01:48.760Z,97943.73
2022-12-23T12:04:24.901Z,97942.80
2022-12-23T12:06:56.846Z,97943.77
2022-12-23T12:09:25.561Z,97940.91
2022-12-23T12:12:03.660Z,97944.73
2022-12-23T12:14:43.452Z,97943.77
2022-12-23T12:17:15.010Z,97942.88
2022-12-23T12:20:01.668Z,97942.09
2022-12-23T12:22:42.885Z,97941.91
2022-12-23T12:25:36.349Z,97943.59
2022-12-23T12:28:34.689Z,97938.18
2022-12-23T12:31:14.427Z,97937.83
2022-12-23T12:34:05.813Z,97941.88
2022-12-23T12:37:16.317Z,97943.73
2022-12-23T12:40:08.327Z,97952.45
2022-12-23T12:42:44.327Z,97954.90
2022-12-23T12:45:21.806Z,97957.55
2022-12-23T12:47:55.186Z,97956.33
2022-12-23T12:50:43.827Z,97958.79
2022-12-23T12:53:20.168Z,97965.20
2022-12-23T12:55:55.457Z,97968.65
2022-12-23T12:58:24.612Z,97969.16
2022-12-23T13:01:17.490Z,97967.69
2022-12-23T13:04:04.169Z,97964.04
2022-12-23T13:06:39.509Z,97967.48
2022-12-23T13:09:17.004Z,97965.44
2022-12-23T13:12:33.656Z,97963.77
2022-12-23T13:15:04.640Z,97964.48
2022-12-23T13:17:42.980Z,97966.28
2022-12-23T13:20:27.634Z,97961.20
2022-12-23T13:23:27.012Z,97957.95
2022-12-23T13:26:02.099Z,97960.20
2022-12-23T13:29:09.198Z,97964.00
2022-12-23T13:32:10.882Z,97969.55
2022-12-23T13:35:24.948Z,97970.04
2022-12-23T13:38:14.644Z,97974.91
2022-12-23T13:41:14.060Z,97978.84
2022-12-23T13:44:01.892Z,97978.02
2022-12-23T13:46:50.948Z,97981.57
2022-12-23T13:49:28.293Z,97973.80
2022-12-23T13:52:06.155Z,97969.07
2022-12-23T13:54:43.576Z,97968.15
2022-12-23T13:57:46.685Z,97973.89
2022-12-23T14:00:18.149Z,97977.58
2022-12-23T14:03:08.880Z,97980.96
2022-12-23T14:05:41.801Z,97983.08
2022-12-23T14:08:24.657Z,97989.05
2022-12-23T14:11:12.130Z,97991.54
2022-12-23T14:14:02.908Z,97998.31
2022-12-23T14:16:59.255Z,97996.75
2022-12-23T14:20:09.242Z,97998.07
2022-12-23T14:23:00.253Z,97995.83
2022-12-23T14:26:00.041Z,97996.03
2022-12-23T14:29:01.940Z,98000.73
2022-12-23T14:31:34.684Z,98003.64
2022-12-23T14:34:26.375Z,98005.52
2022-12-23T14:37:25.992Z,98007.39
2022-12-23T14:39:59.526Z,98012.79
2022-12-23T14:42:40.968Z,98018.95
2022-12-23T14:45:30.153Z,98022.41
2022-12-23T14:48:00.853Z,98024.45
2022-12-23T14:50:37.650Z,98030.80
2022-12-23T14:53:29.685Z,98027.97
2022-12-23T14:56:10.524Z,98027.23
2022-12-23T14:58:46.291Z,98030.41
2022-12-23T15:01:27.077Z,98035.72
2022-12-23T15:04:01.643Z,98034.91
2022-12-23T15:06:41.651Z,98036.19
2022-12-23T15:09:21.454Z,98042.08
2022-12-23T15:11:50.039Z,98051.42
2022-12-23T15:14:42.106Z,98048.69
2022-12-23T15:17:32.074Z,98055.70
2022-12-23T15:20:12.803Z,98051.06
2022-12-23T15:22:43.936Z,98056.02
2022-12-23T15:25:24.844Z,98057.73
2022-12-23T15:28:01.239Z,98060.48
2022-12-23T15:30:50.110Z,98059.98
2022-12-23T15:36:32.419Z,98062.08
2022-12-23T15:39:01.919Z,98059.01
2022-12-23T15:41:30.295Z,98058.13
2022-12-23T15:44:01.933Z,98071.67
2022-12-23T15:46:31.880Z,98079.46
2022-12-23T15:49:02.177Z,98083.00
2022-12-23T15:52:07.930Z,98083.04
2022-12-23T15:54:53.339Z,98081.75
2022-12-23T15:57:26.497Z,98084.59
2022-12-23T16:00:31.537Z,98090.31
2022-12-23T16:03:02.256Z,98094.15
2022-12-23T16:05:34.327Z,98095.29
2022-12-23T16:08:21.805Z,98099.66
2022-12-23T16:11:18.152Z,98091.66
2022-12-23T16:14:03.039Z,98088.53
2022-12-23T16:16:40.589Z,98081.33
2022-12-23T16:19:46.874Z,98088.54
2022-12-23T16:22:21.196Z,98084.59
2022-12-23T16:24:54.707Z,98088.30
2022-12-23T16:27:48.297Z,98082.54
2022-12-23T16:30:24.432Z,98087.98
2022-12-23T16:32:58.542Z,98092.06
2022-12-23T16:35:39.342Z,98090.98
2022-12-23T16:38:18.431Z,98094.46
2022-12-23T16:40:51.666Z,98107.13
2022-12-23T16:43:21.309Z,98102.27
2022-12-23T16:45:59.423Z,98106.42
2022-12-23T16:48:35.271Z,98107.66
2022-12-23T16:51:08.062Z,98111.04
2022-12-23T16:53:37.766Z,98109.27
2022-12-23T16:56:14.812Z,98113.08
2022-12-23T16:58:44.253Z,98116.34
2022-12-23T17:01:25.483Z,98117.98
2022-12-23T17:03:56.084Z,98116.50
2022-12-23T17:06:24.817Z,98115.68
2022-12-23T17:08:53.580Z,98120.56
2022-12-23T17:11:45.256Z,98122.55
2022-12-23T17:14:25.005Z,98130.86
2022-12-23T17:16:54.814Z,98136.48
2022-12-23T17:19:29.050Z,98142.14
2022-12-23T17:22:04.131Z,98142.85
2022-12-23T17:24:35.292Z,98144.40
2022-12-23T17:27:17.130Z,98146.00
2022-12-23T17:29:45.423Z,98140.56
2022-12-23T17:32:19.540Z,98141.70
2022-12-23T17:34:47.874Z,98143.95
2022-12-23T17:37:20.276Z,98142.89
2022-12-23T17:39:49.482Z,98143.42
2022-12-23T17:42:25.837Z,98134.62
2022-12-23T17:44:57.673Z,98132.48
2022-12-23T17:47:29.813Z,98134.10
2022-12-23T17:49:58.309Z,98130.13
2022-12-23T17:52:26.550Z,98128.20
2022-12-23T17:54:55.805Z,98122.38
2022-12-23T17:57:26.785Z,98119.27
2022-12-23T17:59:55.178Z,98119.19
2022-12-23T18:02:33.238Z,98127.77
2022-12-23T18:05:03.176Z,98125.32
2022-12-23T18:07:34.598Z,98126.83
2022-12-23T18:10:02.817Z,98126.02
2022-12-23T18:16:50.719Z,98113.67
2022-12-23T18:23:39.809Z,98115.83
2022-12-23T18:30:26.890Z,98112.73
2022-12-23T19:35:12.859Z,98125.61
2022-12-23T20:04:28.086Z,98139.56
2022-12-23T20:33:57.491Z,98151.08
2022-12-23T20:45:05.346Z,98152.09
2022-12-23T21:23:57.236Z,98162.03
2022-12-23T21:37:53.834Z,98153.94
2022-12-23T21:48:59.857Z,98144.36
2022-12-23T21:55:47.555Z,98144.48
2022-12-23T22:02:35.547Z,98146.33
2022-12-23T22:09:24.483Z,98139.95
2022-12-23T22:16:13.588Z,98138.64
2022-12-23T22:23:00.401Z,98135.00
2022-12-23T22:29:48.126Z,98134.66
2022-12-23T22:36:35.188Z,98132.58
2022-12-23T22:47:41.903Z,98134.73
2022-12-23T22:54:31.860Z,98138.16
2022-12-23T23:06:00.876Z,98139.00
2022-12-23T23:17:05.912Z,98142.89
2022-12-23T23:28:08.233Z,98133.29
2022-12-23T23:34:54.681Z,98132.60
2022-12-23T23:50:17.010Z,98118.44
2022-12-23T23:57:03.506Z,98109.96
